sensor_id;sensor_type;location;lat;lon;timestamp;pressure;altitude;pressure_sealevel;temperature;humidity
78485;BME280;67773;50.806;8.776;2023-08-01T00:00:52;98242.78;;;15.33;97.65
78485;BME280;67773;50.806;8.776;2023-08-01T00:03:31;98242.78;;;15.43;97.99
78485;BME280;67773;50.806;8.776;2023-08-01T00:06:26;98201.41;;;15.27;98.01
78485;BME280;67773;50.806;8.776;2023-08-01T00:09:06;98187.38;;;15.16;98.13
78485;BME280;67773;50.806;8.776;2023-08-01T00:11:36;98168.34;;;15.28;98.51
78485;BME280;67773;50.806;8.776;2023-08-01T00:14:13;98150.16;;;15.42;97.92
78485;BME280;67773;50.806;8.776;2023-08-01T00:16:50;98140.34;;;15.33;97.68
78485;BME280;67773;50.806;8.776;2023-08-01T00:19:31;98088.25;;;15.37;97.71
78485;BME280;67773;50.806;8.776;2023-08-01T00:21:59;98036.47;;;15.38;97.48
78485;BME280;67773;50.806;8.776;2023-08-01T00:24:56;98046.84;;;15.41;97.70
78485;BME280;67773;50.806;8.776;2023-08-01T00:27:43;98115.91;;;15.18;97.96
78485;BME280;67773;50.806;8.776;2023-08-01T00:30:29;98127.56;;;15.26;98.05
78485;BME280;67773;50.806;8.776;2023-08-01T00:33:05;98141.16;;;15.43;97.84
78485;BME280;67773;50.806;8.776;2023-08-01T00:35:33;98135.09;;;15.41;98.41
78485;BME280;67773;50.806;8.776;2023-08-01T00:38:04;98118.06;;;15.42;97.73
78485;BME280;67773;50.806;8.776;2023-08-01T00:40:31;98107.97;;;15.36;98.09
78485;BME280;67773;50.806;8.776;2023-08-01T00:43:00;98109.06;;;15.43;98.28
78485;BME280;67773;50.806;8.776;2023-08-01T00:45:31;98087.16;;;15.29;97.90
78485;BME280;67773;50.806;8.776;2023-08-01T00:48:04;98104.59;;;15.34;98.29
78485;BME280;67773;50.806;8.776;2023-08-01T00:50:29;98100.78;;;15.36;98.25
78485;BME280;67773;50.806;8.776;2023-08-01T00:52:55;98090.34;;;15.43;97.65
78485;BME280;67773;50.806;8.776;2023-08-01T00:55:22;98078.03;;;15.32;97.81
78485;BME280;67773;50.806;8.776;2023-08-01T00:57:48;98111.28;;;15.47;98.00
78485;BME280;67773;50.806;8.776;2023-08-01T01:00:15;98100.34;;;15.41;97.92
78485;BME280;67773;50.806;8.776;2023-08-01T01:02:40;98078.72;;;15.34;97.78
78485;BME280;67773;50.806;8.776;2023-08-01T01:05:08;98105.53;;;15.42;98.55
78485;BME280;67773;50.806;8.776;2023-08-01T01:07:37;98105.94;;;15.47;98.10
78485;BME280;67773;50.806;8.776;2023-08-01T01:10:06;98100.44;;;15.49;98.29
78485;BME280;67773;50.806;8.776;2023-08-01T01:12:33;98087.97;;;15.40;98.41
78485;BME280;67773;50.806;8.776;2023-08-01T01:14:58;98077.16;;;15.31;98.46
78485;BME280;67773;50.806;8.776;2023-08-01T01:17:23;98086.97;;;15.41;98.79
78485;BME280;67773;50.806;8.776;2023-08-01T01:19:51;98070.09;;;15.40;99.36
78485;BME280;67773;50.806;8.776;2023-08-01T01:22:16;98074.44;;;15.41;99.45
78485;BME280;67773;50.806;8.776;2023-08-01T01:24:43;98067.25;;;15.42;99.22
78485;BME280;67773;50.806;8.776;2023-08-01T01:27:09;98064.88;;;15.39;99.31
78485;BME280;67773;50.806;8.776;2023-08-01T01:29:35;98038.88;;;15.31;99.81
78485;BME280;67773;50.806;8.776;2023-08-01T01:32:03;98022.72;;;15.33;99.67
78485;BME280;67773;50.806;8.776;2023-08-01T01:34:29;98054.72;;;15.42;99.80
78485;BME280;67773;50.806;8.776;2023-08-01T01:36:54;98035.28;;;15.50;99.76
78485;BME280;67773;50.806;8.776;2023-08-01T01:39:20;98035.88;;;15.44;99.84
78485;BME280;67773;50.806;8.776;2023-08-01T01:41:46;98012.56;;;15.36;100.00
78485;BME280;67773;50.806;8.776;2023-08-01T01:44:11;98018.16;;;15.43;99.93
78485;BME280;67773;50.806;8.776;2023-08-01T01:46:36;98012.81;;;15.43;99.95
78485;BME280;67773;50.806;8.776;2023-08-01T01:49:02;98008.31;;;15.43;99.50
78485;BME280;67773;50.806;8.776;2023-08-01T01:51:31;98003.84;;;15.34;99.39
78485;BME280;67773;50.806;8.776;2023-08-01T01:53:57;97999.88;;;15.38;99.46
78485;BME280;67773;50.806;8.776;2023-08-01T01:56:22;98002.19;;;15.33;99.87
78485;BME280;67773;50.806;8.776;2023-08-01T01:58:48;97981.41;;;15.17;99.82
78485;BME280;67773;50.806;8.776;2023-08-01T02:01:13;97986.34;;;15.22;100.00
78485;BME280;67773;50.806;8.776;2023-08-01T02:03:38;97999.25;;;15.26;100.00
78485;BME280;67773;50.806;8.776;2023-08-01T02:06:04;97981.13;;;15.20;99.81
78485;BME280;67773;50.806;8.776;2023-08-01T02:08:30;97987.56;;;15.27;100.00
78485;BME280;67773;50.806;8.776;2023-08-01T02:10:55;97975.50;;;15.23;100.00
78485;BME280;67773;50.806;8.776;2023-08-01T02:13:24;97980.53;;;15.26;100.00
78485;BME280;67773;50.806;8.776;2023-08-01T02:15:49;97982.38;;;15.26;99.97
78485;BME280;67773;50.806;8.776;2023-08-01T02:18:14;97978.00;;;15.25;100.00
78485;BME280;67773;50.806;8.776;2023-08-01T02:20:40;97977.13;;;15.34;100.00
78485;BME280;67773;50.806;8.776;2023-08-01T02:23:05;97965.19;;;15.28;100.00
78485;BME280;67773;50.806;8.776;2023-08-01T02:25:30;97943.69;;;15.20;100.00
78485;BME280;67773;50.806;8.776;2023-08-01T02:27:57;97939.44;;;15.27;100.00
78485;BME280;67773;50.806;8.776;2023-08-01T02:30:22;97947.25;;;15.39;100.00
78485;BME280;67773;50.806;8.776;2023-08-01T02:32:48;97939.00;;;15.32;100.00
78485;BME280;67773;50.806;8.776;2023-08-01T02:35:13;97933.50;;;15.34;100.00
78485;BME280;67773;50.806;8.776;2023-08-01T02:37:39;97929.84;;;15.35;100.00
78485;BME280;67773;50.806;8.776;2023-08-01T02:40:07;97909.94;;;15.19;100.00
78485;BME280;67773;50.806;8.776;2023-08-01T02:42:33;97920.88;;;15.26;100.00
78485;BME280;67773;50.806;8.776;2023-08-01T02:45:00;97932.72;;;15.41;100.00
78485;BME280;67773;50.806;8.776;2023-08-01T02:47:25;97934.41;;;15.42;100.00
78485;BME280;67773;50.806;8.776;2023-08-01T02:49:50;97938.63;;;15.45;100.00
78485;BME280;67773;50.806;8.776;2023-08-01T02:52:17;97925.56;;;15.42;99.83
78485;BME280;67773;50.806;8.776;2023-08-01T02:54:43;97921.13;;;15.33;100.00
78485;BME280;67773;50.806;8.776;2023-08-01T02:57:08;97937.81;;;15.44;100.00
78485;BME280;67773;50.806;8.776;2023-08-01T02:59:33;97914.78;;;15.34;100.00
78485;BME280;67773;50.806;8.776;2023-08-01T03:01:59;97930.91;;;15.42;99.89
78485;BME280;67773;50.806;8.776;2023-08-01T03:04:24;97914.09;;;15.31;99.88
78485;BME280;67773;50.806;8.776;2023-08-01T03:06:50;97925.84;;;15.39;100.00
78485;BME280;67773;50.806;8.776;2023-08-01T03:09:15;97913.19;;;15.41;99.69
78485;BME280;67773;50.806;8.776;2023-08-01T03:11:41;97915.56;;;15.44;100.00
78485;BME280;67773;50.806;8.776;2023-08-01T03:14:09;97914.00;;;15.41;100.00
78485;BME280;67773;50.806;8.776;2023-08-01T03:16:34;97910.34;;;15.42;100.00
78485;BME280;67773;50.806;8.776;2023-08-01T03:18:59;97861.63;;;15.30;100.00
78485;BME280;67773;50.806;8.776;2023-08-01T03:21:33;97882.50;;;15.45;100.00
78485;BME280;67773;50.806;8.776;2023-08-01T03:23:59;97891.56;;;15.34;100.00
78485;BME280;67773;50.806;8.776;2023-08-01T03:26:25;97869.94;;;15.27;100.00
78485;BME280;67773;50.806;8.776;2023-08-01T03:28:50;97859.34;;;15.36;100.00
78485;BME280;67773;50.806;8.776;2023-08-01T03:31:16;97865.38;;;15.38;100.00
78485;BME280;67773;50.806;8.776;2023-08-01T03:33:41;97869.41;;;15.42;100.00
78485;BME280;67773;50.806;8.776;2023-08-01T03:36:07;97872.78;;;15.44;100.00
78485;BME280;67773;50.806;8.776;2023-08-01T03:38:32;97873.78;;;15.43;100.00
78485;BME280;67773;50.806;8.776;2023-08-01T03:40:57;97857.44;;;15.46;100.00
78485;BME280;67773;50.806;8.776;2023-08-01T03:43:23;97865.88;;;15.41;100.00
78485;BME280;67773;50.806;8.776;2023-08-01T03:45:49;97849.00;;;15.41;100.00
78485;BME280;67773;50.806;8.776;2023-08-01T03:48:15;97862.53;;;15.39;100.00
78485;BME280;67773;50.806;8.776;2023-08-01T03:50:40;97842.63;;;15.34;100.00
78485;BME280;67773;50.806;8.776;2023-08-01T03:53:05;97836.97;;;15.37;100.00
78485;BME280;67773;50.806;8.776;2023-08-01T03:55:32;97845.34;;;15.42;100.00
78485;BME280;67773;50.806;8.776;2023-08-01T03:57:58;97821.50;;;15.30;100.00
78485;BME280;67773;50.806;8.776;2023-08-01T04:00:23;97843.06;;;15.47;100.00
78485;BME280;67773;50.806;8.776;2023-08-01T04:02:49;97833.81;;;15.41;100.00
78485;BME280;67773;50.806;8.776;2023-08-01T04:05:14;97843.50;;;15.42;100.00
78485;BME280;67773;50.806;8.776;2023-08-01T04:07:41;97840.00;;;15.42;100.00
78485;BME280;67773;50.806;8.776;2023-08-01T04:10:07;97815.16;;;15.31;100.00
78485;BME280;67773;50.806;8.776;2023-08-01T04:12:33;97815.41;;;15.38;100.00
78485;BME280;67773;50.806;8.776;2023-08-01T04:14:59;97829.38;;;15.50;100.00
78485;BME280;67773;50.806;8.776;2023-08-01T04:17:25;97823.34;;;15.48;100.00
78485;BME280;67773;50.806;8.776;2023-08-01T04:19:50;97820.44;;;15.41;100.00
78485;BME280;67773;50.806;8.776;2023-08-01T04:22:16;97831.44;;;15.56;100.00
78485;BME280;67773;50.806;8.776;2023-08-01T04:24:43;97830.91;;;15.52;100.00
78485;BME280;67773;50.806;8.776;2023-08-01T04:27:08;97832.38;;;15.47;100.00
78485;BME280;67773;50.806;8.776;2023-08-01T04:29:34;97838.47;;;15.57;100.00
78485;BME280;67773;50.806;8.776;2023-08-01T04:31:59;97840.00;;;15.59;100.00
78485;BME280;67773;50.806;8.776;2023-08-01T04:34:25;97842.66;;;15.59;100.00
78485;BME280;67773;50.806;8.776;2023-08-01T04:36:50;97817.16;;;15.47;100.00
78485;BME280;67773;50.806;8.776;2023-08-01T04:39:16;97833.50;;;15.62;100.00
78485;BME280;67773;50.806;8.776;2023-08-01T04:41:41;97793.78;;;15.49;100.00
78485;BME280;67773;50.806;8.776;2023-08-01T04:44:06;97779.06;;;15.63;100.00
78485;BME280;67773;50.806;8.776;2023-08-01T04:46:32;97828.09;;;15.54;100.00
78485;BME280;67773;50.806;8.776;2023-08-01T04:48:58;97848.59;;;15.63;100.00
78485;BME280;67773;50.806;8.776;2023-08-01T04:51:24;97856.63;;;15.63;100.00
78485;BME280;67773;50.806;8.776;2023-08-01T04:53:49;97849.72;;;15.61;100.00
78485;BME280;67773;50.806;8.776;2023-08-01T04:56:15;97848.94;;;15.50;100.00
78485;BME280;67773;50.806;8.776;2023-08-01T04:58:41;97855.91;;;15.61;100.00
78485;BME280;67773;50.806;8.776;2023-08-01T05:01:07;97854.78;;;15.64;100.00
78485;BME280;67773;50.806;8.776;2023-08-01T05:03:35;97871.66;;;15.64;100.00
78485;BME280;67773;50.806;8.776;2023-08-01T05:06:02;97847.09;;;15.51;100.00
78485;BME280;67773;50.806;8.776;2023-08-01T05:08:36;97879.53;;;15.66;100.00
78485;BME280;67773;50.806;8.776;2023-08-01T05:11:38;97890.75;;;15.69;100.00
78485;BME280;67773;50.806;8.776;2023-08-01T05:15:12;97885.41;;;15.69;100.00
78485;BME280;67773;50.806;8.776;2023-08-01T05:18:11;97867.13;;;15.47;100.00
78485;BME280;67773;50.806;8.776;2023-08-01T05:20:51;97888.25;;;15.68;100.00
78485;BME280;67773;50.806;8.776;2023-08-01T05:23:38;97888.31;;;15.76;100.00
78485;BME280;67773;50.806;8.776;2023-08-01T05:26:19;97878.16;;;15.62;100.00
78485;BME280;67773;50.806;8.776;2023-08-01T05:28:45;97896.25;;;15.68;100.00
78485;BME280;67773;50.806;8.776;2023-08-01T05:31:13;97887.44;;;15.57;100.00
78485;BME280;67773;50.806;8.776;2023-08-01T05:33:43;97910.47;;;15.68;100.00
78485;BME280;67773;50.806;8.776;2023-08-01T05:36:09;97931.97;;;15.76;100.00
78485;BME280;67773;50.806;8.776;2023-08-01T05:38:36;97913.06;;;15.60;100.00
78485;BME280;67773;50.806;8.776;2023-08-01T05:41:01;97934.19;;;15.63;99.38
78485;BME280;67773;50.806;8.776;2023-08-01T05:43:28;97945.19;;;15.50;97.31
78485;BME280;67773;50.806;8.776;2023-08-01T05:45:53;97943.31;;;15.43;97.53
78485;BME280;67773;50.806;8.776;2023-08-01T05:48:19;97942.59;;;15.41;97.33
78485;BME280;67773;50.806;8.776;2023-08-01T05:50:44;97929.16;;;15.33;96.34
78485;BME280;67773;50.806;8.776;2023-08-01T05:53:10;97930.47;;;15.19;95.65
78485;BME280;67773;50.806;8.776;2023-08-01T05:55:36;97953.41;;;15.21;95.04
78485;BME280;67773;50.806;8.776;2023-08-01T05:58:02;97955.78;;;15.24;95.17
78485;BME280;67773;50.806;8.776;2023-08-01T06:00:27;97953.84;;;15.17;93.17
78485;BME280;67773;50.806;8.776;2023-08-01T06:02:53;97952.91;;;15.08;94.55
78485;BME280;67773;50.806;8.776;2023-08-01T06:05:19;97946.72;;;15.08;93.79
78485;BME280;67773;50.806;8.776;2023-08-01T06:07:44;97962.41;;;15.20;92.81
78485;BME280;67773;50.806;8.776;2023-08-01T06:10:10;97966.91;;;15.20;92.56
78485;BME280;67773;50.806;8.776;2023-08-01T06:12:35;97961.41;;;15.21;93.13
78485;BME280;67773;50.806;8.776;2023-08-01T06:15:01;97948.19;;;15.20;93.23
78485;BME280;67773;50.806;8.776;2023-08-01T06:17:26;97966.03;;;15.29;92.94
78485;BME280;67773;50.806;8.776;2023-08-01T06:19:53;97963.59;;;15.36;92.20
78485;BME280;67773;50.806;8.776;2023-08-01T06:22:21;97963.59;;;15.36;92.32
78485;BME280;67773;50.806;8.776;2023-08-01T06:24:46;97963.28;;;15.39;93.71
78485;BME280;67773;50.806;8.776;2023-08-01T06:27:12;97958.63;;;15.41;92.94
78485;BME280;67773;50.806;8.776;2023-08-01T06:29:40;97934.78;;;15.29;93.36
78485;BME280;67773;50.806;8.776;2023-08-01T06:32:06;97966.16;;;15.55;94.32
78485;BME280;67773;50.806;8.776;2023-08-01T06:34:32;97979.22;;;15.58;94.75
78485;BME280;67773;50.806;8.776;2023-08-01T06:36:57;97978.94;;;15.61;93.56
78485;BME280;67773;50.806;8.776;2023-08-01T06:39:23;97973.09;;;15.48;92.29
78485;BME280;67773;50.806;8.776;2023-08-01T06:41:51;97971.09;;;15.50;91.22
78485;BME280;67773;50.806;8.776;2023-08-01T06:44:16;97998.09;;;15.56;89.96
78485;BME280;67773;50.806;8.776;2023-08-01T06:46:41;97988.78;;;15.61;89.16
78485;BME280;67773;50.806;8.776;2023-08-01T06:49:07;97960.50;;;15.58;89.39
78485;BME280;67773;50.806;8.776;2023-08-01T06:51:32;97969.09;;;15.52;88.86
78485;BME280;67773;50.806;8.776;2023-08-01T06:53:57;97975.84;;;15.56;88.49
78485;BME280;67773;50.806;8.776;2023-08-01T06:56:23;97996.84;;;15.51;88.20
78485;BME280;67773;50.806;8.776;2023-08-01T06:58:48;97979.59;;;15.45;87.74
78485;BME280;67773;50.806;8.776;2023-08-01T07:01:13;97981.56;;;15.43;86.32
78485;BME280;67773;50.806;8.776;2023-08-01T07:03:40;97978.34;;;15.40;88.60
78485;BME280;67773;50.806;8.776;2023-08-01T07:06:05;98002.59;;;15.56;87.17
78485;BME280;67773;50.806;8.776;2023-08-01T07:08:31;98003.13;;;15.59;86.75
78485;BME280;67773;50.806;8.776;2023-08-01T07:10:57;97991.31;;;15.62;84.99
78485;BME280;67773;50.806;8.776;2023-08-01T07:13:22;98010.22;;;15.78;87.03
78485;BME280;67773;50.806;8.776;2023-08-01T07:15:50;98009.69;;;15.93;86.20
78485;BME280;67773;50.806;8.776;2023-08-01T07:18:15;98007.78;;;15.85;86.43
78485;BME280;67773;50.806;8.776;2023-08-01T07:20:41;98034.31;;;15.96;84.44
78485;BME280;67773;50.806;8.776;2023-08-01T07:23:08;98038.06;;;15.85;85.10
78485;BME280;67773;50.806;8.776;2023-08-01T07:25:33;98027.31;;;15.68;84.42
78485;BME280;67773;50.806;8.776;2023-08-01T07:28:07;98046.84;;;15.78;85.08
78485;BME280;67773;50.806;8.776;2023-08-01T07:30:37;98036.19;;;15.68;85.97
78485;BME280;67773;50.806;8.776;2023-08-01T07:33:28;98039.47;;;15.62;85.39
78485;BME280;67773;50.806;8.776;2023-08-01T07:35:59;98047.38;;;15.54;87.85
78485;BME280;67773;50.806;8.776;2023-08-01T07:38:47;98049.75;;;15.57;87.01
78485;BME280;67773;50.806;8.776;2023-08-01T07:41:32;98030.75;;;15.60;86.33
78485;BME280;67773;50.806;8.776;2023-08-01T07:44:03;98038.88;;;15.68;86.40
78485;BME280;67773;50.806;8.776;2023-08-01T07:46:29;98056.00;;;15.75;85.72
78485;BME280;67773;50.806;8.776;2023-08-01T07:48:56;98058.53;;;15.77;85.40
78485;BME280;67773;50.806;8.776;2023-08-01T07:51:21;98047.09;;;15.84;85.62
78485;BME280;67773;50.806;8.776;2023-08-01T07:53:46;98052.50;;;15.93;85.19
78485;BME280;67773;50.806;8.776;2023-08-01T07:56:12;98050.00;;;16.09;84.18
78485;BME280;67773;50.806;8.776;2023-08-01T07:58:37;98060.03;;;16.07;81.79
78485;BME280;67773;50.806;8.776;2023-08-01T08:01:04;98042.72;;;16.01;81.25
78485;BME280;67773;50.806;8.776;2023-08-01T08:03:31;98047.63;;;16.06;82.06
78485;BME280;67773;50.806;8.776;2023-08-01T08:05:57;98047.56;;;16.15;83.03
78485;BME280;67773;50.806;8.776;2023-08-01T08:08:24;98045.66;;;16.26;81.14
78485;BME280;67773;50.806;8.776;2023-08-01T08:10:51;98058.47;;;16.58;81.16
78485;BME280;67773;50.806;8.776;2023-08-01T08:13:16;98039.09;;;16.64;79.19
78485;BME280;67773;50.806;8.776;2023-08-01T08:15:42;98049.81;;;16.82;78.30
78485;BME280;67773;50.806;8.776;2023-08-01T08:18:07;98051.31;;;16.66;78.02
78485;BME280;67773;50.806;8.776;2023-08-01T08:20:44;98049.88;;;16.54;78.08
78485;BME280;67773;50.806;8.776;2023-08-01T08:23:11;98055.00;;;16.65;75.30
78485;BME280;67773;50.806;8.776;2023-08-01T08:25:39;98060.16;;;16.59;76.49
78485;BME280;67773;50.806;8.776;2023-08-01T08:28:05;98058.47;;;16.58;77.02
78485;BME280;67773;50.806;8.776;2023-08-01T08:30:30;98068.72;;;16.80;75.51
78485;BME280;67773;50.806;8.776;2023-08-01T08:32:57;98070.47;;;16.89;77.17
78485;BME280;67773;50.806;8.776;2023-08-01T08:35:22;98063.69;;;17.03;76.69
78485;BME280;67773;50.806;8.776;2023-08-01T08:37:48;98064.28;;;17.23;75.41
78485;BME280;67773;50.806;8.776;2023-08-01T08:40:13;98073.97;;;17.50;72.16
78485;BME280;67773;50.806;8.776;2023-08-01T08:42:39;98063.63;;;17.29;72.41
78485;BME280;67773;50.806;8.776;2023-08-01T08:45:05;98059.22;;;17.88;71.53
78485;BME280;67773;50.806;8.776;2023-08-01T08:47:35;98073.53;;;18.13;68.86
78485;BME280;67773;50.806;8.776;2023-08-01T08:50:04;98077.22;;;18.12;69.70
78485;BME280;67773;50.806;8.776;2023-08-01T08:52:35;98070.31;;;18.01;70.16
78485;BME280;67773;50.806;8.776;2023-08-01T08:55:01;98080.66;;;17.72;71.26
78485;BME280;67773;50.806;8.776;2023-08-01T08:57:39;98094.38;;;18.19;70.38
78485;BME280;67773;50.806;8.776;2023-08-01T09:00:15;98102.66;;;18.74;69.31
78485;BME280;67773;50.806;8.776;2023-08-01T09:02:47;98068.38;;;18.36;65.12
78485;BME280;67773;50.806;8.776;2023-08-01T09:05:22;98101.94;;;18.24;68.21
78485;BME280;67773;50.806;8.776;2023-08-01T09:08:13;98086.78;;;18.06;69.11
78485;BME280;67773;50.806;8.776;2023-08-01T09:10:54;98111.03;;;18.39;66.03
78485;BME280;67773;50.806;8.776;2023-08-01T09:13:24;98106.50;;;18.39;64.67
78485;BME280;67773;50.806;8.776;2023-08-01T09:16:11;98098.13;;;18.83;64.64
78485;BME280;67773;50.806;8.776;2023-08-01T09:18:52;98092.50;;;19.42;65.00
78485;BME280;67773;50.806;8.776;2023-08-01T09:21:21;98102.19;;;19.67;61.99
78485;BME280;67773;50.806;8.776;2023-08-01T09:23:47;98075.78;;;19.71;62.31
78485;BME280;67773;50.806;8.776;2023-08-01T09:26:17;98094.91;;;19.20;64.46
78485;BME280;67773;50.806;8.776;2023-08-01T09:28:43;98108.41;;;18.80;64.02
78485;BME280;67773;50.806;8.776;2023-08-01T09:31:11;98090.25;;;18.82;64.31
78485;BME280;67773;50.806;8.776;2023-08-01T09:33:41;98111.41;;;19.09;63.58
78485;BME280;67773;50.806;8.776;2023-08-01T09:36:20;98093.63;;;18.67;64.28
78485;BME280;67773;50.806;8.776;2023-08-01T09:38:46;98110.03;;;18.48;63.67
78485;BME280;67773;50.806;8.776;2023-08-01T09:41:17;98115.09;;;18.59;63.07
78485;BME280;67773;50.806;8.776;2023-08-01T09:43:45;98106.38;;;22.27;51.34
78485;BME280;67773;50.806;8.776;2023-08-01T09:46:11;98111.38;;;21.79;53.46
78485;BME280;67773;50.806;8.776;2023-08-01T09:48:37;98097.69;;;21.66;53.86
78485;BME280;67773;50.806;8.776;2023-08-01T09:51:06;98107.34;;;23.26;50.89
78485;BME280;67773;50.806;8.776;2023-08-01T09:53:32;98105.13;;;22.44;52.71
78485;BME280;67773;50.806;8.776;2023-08-01T09:56:00;98118.25;;;20.99;55.26
78485;BME280;67773;50.806;8.776;2023-08-01T09:58:33;98116.59;;;19.91;58.44
78485;BME280;67773;50.806;8.776;2023-08-01T10:01:01;98120.38;;;19.65;59.92
78485;BME280;67773;50.806;8.776;2023-08-01T10:03:28;98117.31;;;21.30;55.07
78485;BME280;67773;50.806;8.776;2023-08-01T10:05:54;98114.34;;;22.92;51.28
78485;BME280;67773;50.806;8.776;2023-08-01T10:08:21;98106.53;;;23.32;49.04
78485;BME280;67773;50.806;8.776;2023-08-01T10:10:48;98097.34;;;24.43;47.68
78485;BME280;67773;50.806;8.776;2023-08-01T10:13:14;98080.47;;;27.45;40.81
78485;BME280;67773;50.806;8.776;2023-08-01T10:15:41;98089.47;;;27.45;37.22
78485;BME280;67773;50.806;8.776;2023-08-01T10:18:08;98103.25;;;25.59;41.47
78485;BME280;67773;50.806;8.776;2023-08-01T10:20:35;98095.94;;;26.38;42.43
78485;BME280;67773;50.806;8.776;2023-08-01T10:23:02;98088.47;;;26.90;39.56
78485;BME280;67773;50.806;8.776;2023-08-01T10:25:29;98099.84;;;25.97;40.85
78485;BME280;67773;50.806;8.776;2023-08-01T10:27:59;98105.47;;;23.26;47.01
78485;BME280;67773;50.806;8.776;2023-08-01T10:30:28;98107.31;;;20.78;54.98
78485;BME280;67773;50.806;8.776;2023-08-01T10:32:56;98125.66;;;19.89;58.10
78485;BME280;67773;50.806;8.776;2023-08-01T10:35:35;98126.47;;;19.43;61.45
78485;BME280;67773;50.806;8.776;2023-08-01T10:38:11;98145.53;;;18.84;61.30
78485;BME280;67773;50.806;8.776;2023-08-01T10:40:39;98165.53;;;18.23;65.71
78485;BME280;67773;50.806;8.776;2023-08-01T10:43:24;98159.81;;;17.24;68.90
78485;BME280;67773;50.806;8.776;2023-08-01T10:46:03;98172.88;;;16.65;73.90
78485;BME280;67773;50.806;8.776;2023-08-01T10:48:30;98144.03;;;16.41;72.59
78485;BME280;67773;50.806;8.776;2023-08-01T10:50:56;98170.47;;;16.72;73.81
78485;BME280;67773;50.806;8.776;2023-08-01T10:53:22;98163.63;;;16.95;73.45
78485;BME280;67773;50.806;8.776;2023-08-01T10:55:47;98159.59;;;17.17;72.49
78485;BME280;67773;50.806;8.776;2023-08-01T10:58:14;98152.50;;;17.86;69.55
78485;BME280;67773;50.806;8.776;2023-08-01T11:00:41;98146.88;;;19.13;65.08
78485;BME280;67773;50.806;8.776;2023-08-01T11:03:06;98147.78;;;22.63;56.36
78485;BME280;67773;50.806;8.776;2023-08-01T11:05:33;98140.22;;;24.88;47.80
78485;BME280;67773;50.806;8.776;2023-08-01T11:08:00;98127.63;;;24.06;50.59
78485;BME280;67773;50.806;8.776;2023-08-01T11:10:27;98133.03;;;26.64;43.59
78485;BME280;67773;50.806;8.776;2023-08-01T11:12:54;98115.59;;;25.55;44.97
78485;BME280;67773;50.806;8.776;2023-08-01T11:15:20;98134.16;;;22.78;52.70
78485;BME280;67773;50.806;8.776;2023-08-01T11:17:53;98151.28;;;21.01;56.43
78485;BME280;67773;50.806;8.776;2023-08-01T11:20:20;98116.81;;;22.87;52.88
78485;BME280;67773;50.806;8.776;2023-08-01T11:22:56;98126.88;;;23.21;49.83
78485;BME280;67773;50.806;8.776;2023-08-01T11:25:39;98116.91;;;23.84;50.55
78485;BME280;67773;50.806;8.776;2023-08-01T11:28:10;98133.72;;;24.08;50.58
78485;BME280;67773;50.806;8.776;2023-08-01T11:30:36;98140.56;;;22.92;51.87
78485;BME280;67773;50.806;8.776;2023-08-01T11:33:02;98137.38;;;22.09;53.88
78485;BME280;67773;50.806;8.776;2023-08-01T11:35:38;98139.25;;;22.66;54.64
78485;BME280;67773;50.806;8.776;2023-08-01T11:38:04;98120.63;;;22.93;51.42
78485;BME280;67773;50.806;8.776;2023-08-01T11:40:31;98142.84;;;21.86;54.95
78485;BME280;67773;50.806;8.776;2023-08-01T11:42:57;98137.72;;;23.00;51.53
78485;BME280;67773;50.806;8.776;2023-08-01T11:45:23;98141.06;;;22.81;50.37
78485;BME280;67773;50.806;8.776;2023-08-01T11:47:49;98121.59;;;23.13;50.56
78485;BME280;67773;50.806;8.776;2023-08-01T11:50:21;98131.97;;;23.94;46.91
78485;BME280;67773;50.806;8.776;2023-08-01T11:52:48;98143.63;;;22.46;49.49
78485;BME280;67773;50.806;8.776;2023-08-01T11:55:26;98130.56;;;24.04;45.93
78485;BME280;67773;50.806;8.776;2023-08-01T11:57:57;98144.66;;;25.22;42.51
78485;BME280;67773;50.806;8.776;2023-08-01T12:00:27;98154.91;;;25.26;41.19
78485;BME280;67773;50.806;8.776;2023-08-01T12:03:06;98132.53;;;26.42;39.76
78485;BME280;67773;50.806;8.776;2023-08-01T12:05:31;98127.81;;;26.62;38.57
78485;BME280;67773;50.806;8.776;2023-08-01T12:08:10;98135.84;;;25.00;43.71
78485;BME280;67773;50.806;8.776;2023-08-01T12:10:38;98143.28;;;23.41;45.43
78485;BME280;67773;50.806;8.776;2023-08-01T12:13:19;98141.66;;;22.76;46.63
78485;BME280;67773;50.806;8.776;2023-08-01T12:15:46;98131.97;;;21.50;50.81
78485;BME280;67773;50.806;8.776;2023-08-01T12:18:22;98130.78;;;20.92;51.66
78485;BME280;67773;50.806;8.776;2023-08-01T12:20:48;98126.78;;;20.88;52.05
78485;BME280;67773;50.806;8.776;2023-08-01T12:23:13;98131.94;;;21.65;53.09
78485;BME280;67773;50.806;8.776;2023-08-01T12:25:38;98123.19;;;21.11;53.47
78485;BME280;67773;50.806;8.776;2023-08-01T12:28:04;98153.19;;;20.70;54.85
78485;BME280;67773;50.806;8.776;2023-08-01T12:30:30;98137.88;;;20.39;53.96
78485;BME280;67773;50.806;8.776;2023-08-01T12:32:55;98161.69;;;20.28;55.97
78485;BME280;67773;50.806;8.776;2023-08-01T12:35:20;98151.78;;;20.20;54.71
78485;BME280;67773;50.806;8.776;2023-08-01T12:37:46;98158.84;;;20.21;54.32
78485;BME280;67773;50.806;8.776;2023-08-01T12:40:17;98161.31;;;20.31;52.89
78485;BME280;67773;50.806;8.776;2023-08-01T12:42:43;98151.75;;;20.82;52.80
78485;BME280;67773;50.806;8.776;2023-08-01T12:45:11;98143.28;;;21.46;50.19
78485;BME280;67773;50.806;8.776;2023-08-01T12:47:36;98150.31;;;21.70;51.67
78485;BME280;67773;50.806;8.776;2023-08-01T12:50:02;98158.03;;;21.58;49.24
78485;BME280;67773;50.806;8.776;2023-08-01T12:52:30;98144.88;;;20.80;52.62
78485;BME280;67773;50.806;8.776;2023-08-01T12:55:03;98178.44;;;20.15;53.18
78485;BME280;67773;50.806;8.776;2023-08-01T12:57:29;98210.69;;;19.76;54.88
78485;BME280;67773;50.806;8.776;2023-08-01T12:59:54;98191.13;;;18.35;68.18
78485;BME280;67773;50.806;8.776;2023-08-01T13:02:48;98194.38;;;17.53;72.10
78485;BME280;67773;50.806;8.776;2023-08-01T13:05:27;98193.41;;;19.46;68.65